Time;durP1;ratioP1;P1;durP2;ratioP2;P2;SDS_P1;SDS_P2;PMS_P1;PMS_P2;Temp;Humidity;BMP_temperature;BMP_pressure;BME280_temperature;BME280_humidity;BME280_pressure;Samples;Min_cycle;Max_cycle;Signal;HPM_P1;HPM_P2
2022/01/11 08:56:55;;;;;;;28.55;3.63;;;11.20;99.90;;;;;;6239169;22;20019;-63
2022/01/11 08:59:25;;;;;;;5.57;2.47;;;11.20;99.90;;;;;;6251204;22;20344;-63
2022/01/11 09:02:04;;;;;;;13.88;2.42;;;11.20;99.90;;;;;;6279869;22;20445;-63
2022/01/11 09:04:32;;;;;;;12.43;2.70;;;11.20;99.90;;;;;;6278187;22;20006;-63
2022/01/11 09:07:22;;;;;;;10.25;2.65;;;11.20;99.90;;;;;;6127201;23;20025;-63
2022/01/11 09:09:53;;;;;;;6.90;2.22;;;11.30;99.90;;;;;;6096202;23;20013;-62
2022/01/11 09:12:20;;;;;;;12.88;3.15;;;11.30;99.90;;;;;;6095888;23;20078;-63
2022/01/11 09:14:52;;;;;;;7.25;2.60;;;11.30;99.90;;;;;;6095864;23;20007;-63
2022/01/11 09:17:20;;;;;;;14.57;3.72;;;11.40;99.90;;;;;;6095801;23;20018;-63
2022/01/11 09:19:50;;;;;;;13.27;2.90;;;11.30;99.90;;;;;;6095782;23;20403;-62
2022/01/11 09:22:20;;;;;;;11.70;3.25;;;11.30;99.90;;;;;;6095647;23;20021;-63
2022/01/11 09:24:47;;;;;;;10.63;2.83;;;11.30;99.90;;;;;;6095734;23;20011;-63
2022/01/11 09:27:20;;;;;;;12.85;3.78;;;11.30;99.90;;;;;;6095612;23;20108;-63
2022/01/11 09:29:49;;;;;;;19.70;4.00;;;11.40;99.90;;;;;;6095498;23;20364;-62
2022/01/11 09:32:18;;;;;;;12.00;2.35;;;11.40;99.90;;;;;;6095725;23;20006;-63
2022/01/11 09:34:47;;;;;;;10.18;3.05;;;11.40;99.90;;;;;;6095681;23;20495;-63
2022/01/11 09:37:24;;;;;;;15.02;3.75;;;11.50;99.90;;;;;;6095557;23;20010;-63
2022/01/11 09:39:52;;;;;;;14.20;3.05;;;11.50;99.90;;;;;;6095679;23;20007;-63
2022/01/11 09:42:26;;;;;;;18.67;3.08;;;11.40;99.90;;;;;;6095670;23;20436;-62
2022/01/11 09:44:55;;;;;;;7.50;2.72;;;11.40;99.90;;;;;;6206591;23;20334;-62
2022/01/11 09:47:22;;;;;;;11.13;4.07;;;11.40;99.90;;;;;;6246949;23;20015;-63
2022/01/11 09:49:52;;;;;;;7.78;2.53;;;11.40;99.90;;;;;;6246795;23;20010;-63
2022/01/11 09:52:20;;;;;;;15.60;3.33;;;11.50;99.90;;;;;;6246855;23;20008;-63
2022/01/11 09:54:53;;;;;;;16.05;3.80;;;11.50;99.90;;;;;;6246674;23;20070;-63
2022/01/11 09:57:23;;;;;;;14.85;2.97;;;11.50;99.90;;;;;;6246788;23;20027;-63
2022/01/11 10:00:06;;;;;;;12.20;3.00;;;11.50;99.90;;;;;;6247402;23;20042;-63
2022/01/11 10:02:52;;;;;;;13.50;3.58;;;11.50;99.90;;;;;;6246578;23;20011;-63
2022/01/11 10:05:43;;;;;;;13.35;2.13;;;11.50;99.90;;;;;;6246634;23;20007;-63
2022/01/11 10:08:25;;;;;;;12.85;3.50;;;11.50;99.90;;;;;;6246698;23;20345;-63
2022/01/11 10:10:59;;;;;;;14.95;3.88;;;11.60;99.90;;;;;;6220276;23;20426;-63
2022/01/11 10:13:41;;;;;;;12.30;3.03;;;11.60;99.90;;;;;;6246616;23;20004;-63
2022/01/11 10:16:23;;;;;;;10.40;2.85;;;11.60;99.90;;;;;;6246430;23;20020;-63
2022/01/11 10:18:56;;;;;;;10.85;3.15;;;11.70;99.90;;;;;;6246669;23;20011;-63
2022/01/11 10:21:41;;;;;;;21.60;3.25;;;11.70;99.90;;;;;;6247875;23;20305;-63
2022/01/11 10:24:41;;;;;;;17.67;3.03;;;11.70;99.90;;;;;;6246835;23;20008;-63
2022/01/11 10:27:34;;;;;;;24.60;3.83;;;11.70;99.90;;;;;;6219535;23;20438;-63
2022/01/11 10:30:18;;;;;;;20.10;4.15;;;11.70;99.90;;;;;;6246580;23;20008;-63
2022/01/11 10:33:04;;;;;;;10.55;3.47;;;11.70;99.90;;;;;;6246419;23;20456;-63
2022/01/11 10:35:45;;;;;;;13.82;2.95;;;11.80;99.90;;;;;;6246313;23;20008;-63
2022/01/11 10:38:30;;;;;;;21.38;4.18;;;11.80;99.90;;;;;;6246705;23;20008;-63
2022/01/11 10:41:06;;;;;;;10.90;3.13;;;11.80;99.90;;;;;;6246291;23;20004;-63
2022/01/11 10:43:43;;;;;;;16.90;3.63;;;11.80;99.90;;;;;;6219268;23;20008;-63
2022/01/11 10:46:13;;;;;;;13.50;3.00;;;11.80;99.90;;;;;;6219511;23;20083;-63
2022/01/11 10:48:44;;;;;;;16.95;3.00;;;11.80;99.90;;;;;;6220376;23;20329;-63
2022/01/11 10:51:15;;;;;;;7.95;3.58;;;11.80;99.90;;;;;;6246023;23;20012;-63
2022/01/11 10:53:49;;;;;;;20.70;3.63;;;11.80;99.90;;;;;;6246257;23;20024;-63
2022/01/11 10:56:19;;;;;;;12.95;3.15;;;11.80;99.90;;;;;;6246468;23;20456;-63
2022/01/11 10:59:10;;;;;;;11.05;3.20;;;11.90;99.90;;;;;;6246032;23;20023;-63
2022/01/11 11:01:44;;;;;;;16.13;2.92;;;11.90;99.90;;;;;;6219282;23;20004;-63
2022/01/11 11:04:31;;;;;;;5.75;2.55;;;11.90;99.90;;;;;;6246570;23;20376;-63
2022/01/11 11:07:23;;;;;;;11.70;2.38;;;11.90;99.90;;;;;;6246146;23;20011;-63
2022/01/11 11:10:11;;;;;;;13.38;2.60;;;11.90;99.90;;;;;;6245322;23;20016;-63
2022/01/11 11:12:39;;;;;;;10.45;2.35;;;11.90;99.90;;;;;;6246212;23;20075;-63
2022/01/11 11:15:26;;;;;;;7.63;3.50;;;11.90;99.90;;;;;;6245935;23;20012;-63
2022/01/11 11:17:53;;;;;;;12.60;3.10;;;11.90;99.90;;;;;;6219142;23;20015;-63
2022/01/11 11:20:32;;;;;;;8.63;2.35;;;11.90;99.90;;;;;;6245944;23;20009;-63
2022/01/11 11:23:02;;;;;;;13.73;2.65;;;12.00;99.90;;;;;;6219409;23;20008;-63
2022/01/11 11:25:29;;;;;;;10.52;3.22;;;12.00;99.90;;;;;;6246422;23;20000;-63
2022/01/11 11:27:56;;;;;;;13.05;3.45;;;12.10;99.90;;;;;;6246033;23;20016;-63
2022/01/11 11:30:26;;;;;;;17.02;3.30;;;12.20;99.90;;;;;;6246394;23;20000;-63
2022/01/11 11:32:53;;;;;;;10.23;2.90;;;12.20;99.90;;;;;;6245975;23;20051;-63
2022/01/11 11:35:21;;;;;;;17.33;4.40;;;12.20;99.90;;;;;;6245810;23;20033;-63
2022/01/11 11:37:52;;;;;;;24.42;6.43;;;12.30;99.90;;;;;;6245933;23;20330;-63
2022/01/11 11:40:26;;;;;;;17.13;4.10;;;12.30;99.90;;;;;;6219256;23;20008;-63
2022/01/11 11:43:05;;;;;;;13.07;2.90;;;12.40;99.90;;;;;;6245917;23;20004;-64
2022/01/11 11:45:38;;;;;;;13.90;3.20;;;12.30;99.90;;;;;;6219017;23;20087;-63
2022/01/11 11:48:07;;;;;;;18.92;2.75;;;12.40;99.90;;;;;;6246596;23;20084;-63
2022/01/11 11:50:45;;;;;;;12.18;3.67;;;12.40;99.90;;;;;;6246046;23;20330;-63
2022/01/11 11:53:27;;;;;;;13.60;2.70;;;12.40;99.90;;;;;;6246282;23;20357;-63
2022/01/11 11:56:15;;;;;;;9.35;2.85;;;12.50;99.90;;;;;;6247149;23;20015;-63
2022/01/11 11:58:50;;;;;;;20.85;3.38;;;12.60;99.90;;;;;;6247941;23;20091;-63
2022/01/11 12:01:58;;;;;;;;;;;12.60;99.90;;;;;;6249657;23;20370;-63
2022/01/11 12:04:31;;;;;;;6.95;2.67;;;12.70;99.90;;;;;;6126250;23;19916;-63
2022/01/11 12:07:19;;;;;;;21.80;3.05;;;12.70;99.90;;;;;;6126149;23;20041;-63
2022/01/11 12:09:51;;;;;;;7.43;2.22;;;12.80;99.90;;;;;;6125786;23;20014;-62
2022/01/11 12:12:52;;;;;;;12.40;3.13;;;12.90;99.90;;;;;;6125813;23;20016;-63
2022/01/11 12:15:35;;;;;;;24.95;3.90;;;13.10;99.90;;;;;;6125818;23;20107;-63
2022/01/11 12:18:05;;;;;;;13.65;3.30;;;13.10;99.90;;;;;;6126327;23;20089;-75
2022/01/11 12:20:48;;;;;;;13.63;3.05;;;13.20;99.90;;;;;;6126563;23;20013;-65
2022/01/11 12:23:37;;;;;;;7.07;2.03;;;13.30;99.90;;;;;;6125760;23;20013;-65
2022/01/11 12:26:16;;;;;;;11.05;2.00;;;13.30;99.90;;;;;;6125924;23;20061;-66
2022/01/11 12:28:44;;;;;;;8.70;1.90;;;13.20;99.90;;;;;;6125817;23;20520;-66
2022/01/11 12:31:25;;;;;;;11.07;2.58;;;13.10;99.90;;;;;;6125666;23;20021;-65
2022/01/11 12:33:51;;;;;;;6.22;2.88;;;13.10;99.90;;;;;;6125615;23;20014;-65
2022/01/11 12:36:18;;;;;;;7.72;2.28;;;13.10;99.90;;;;;;6125698;23;20349;-65
2022/01/11 12:39:06;;;;;;;4.50;2.13;;;13.10;99.90;;;;;;6211261;23;20080;-65
2022/01/11 12:41:37;;;;;;;8.02;2.35;;;13.20;99.90;;;;;;6247783;23;20012;-65
2022/01/11 12:45:35;;;;;;;9.95;3.20;;;13.10;99.90;;;;;;6220793;23;20008;-65
2022/01/11 12:47:21;;;;;;;10.43;2.45;;;13.20;99.90;;;;;;6247518;23;20433;-65
2022/01/11 12:50:08;;;;;;;7.05;3.22;;;13.20;99.90;;;;;;6221242;23;20008;-65
2022/01/11 12:52:35;;;;;;;5.88;1.95;;;13.20;99.90;;;;;;6248063;23;20410;-65
2022/01/11 12:55:04;;;;;;;6.95;2.28;;;13.10;99.90;;;;;;6247646;23;20004;-65
2022/01/11 12:57:40;;;;;;;5.88;2.17;;;13.10;99.90;;;;;;6247372;23;20099;-65
2022/01/11 13:00:18;;;;;;;6.43;2.20;;;13.10;99.90;;;;;;6248001;23;20341;-65
2022/01/11 13:02:45;;;;;;;9.43;1.95;;;13.10;99.90;;;;;;6247968;23;20004;-65
2022/01/11 13:05:17;;;;;;;8.25;1.98;;;13.20;99.90;;;;;;6247506;23;20430;-64
2022/01/11 13:07:50;;;;;;;6.90;2.63;;;13.20;99.90;;;;;;6247191;23;20004;-65
2022/01/11 13:10:26;;;;;;;8.10;2.58;;;13.30;99.90;;;;;;6247632;23;20012;-65
2022/01/11 13:13:05;;;;;;;17.33;1.98;;;13.30;99.90;;;;;;6247402;23;20087;-65
2022/01/11 13:15:40;;;;;;;7.13;2.08;;;13.30;99.90;;;;;;6247719;23;20035;-65
2022/01/11 13:18:08;;;;;;;4.97;2.20;;;13.20;99.90;;;;;;6247414;23;20012;-65
2022/01/11 13:20:41;;;;;;;11.95;2.03;;;13.20;99.90;;;;;;6247370;23;20079;-65
2022/01/11 13:23:34;;;;;;;14.88;2.03;;;13.20;99.90;;;;;;6247341;23;20050;-65
2022/01/11 13:26:04;;;;;;;4.10;1.52;;;13.20;99.90;;;;;;6238621;23;20300;-65
2022/01/11 13:28:42;;;;;;;7.72;1.60;;;13.20;99.90;;;;;;6247167;23;20039;-65
2022/01/11 13:31:20;;;;;;;6.97;3.25;;;13.10;99.90;;;;;;6247665;23;20032;-65
2022/01/11 13:33:55;;;;;;;13.65;2.47;;;13.00;99.90;;;;;;6247308;23;20011;-65
2022/01/11 13:36:30;;;;;;;8.43;2.00;;;13.00;99.90;;;;;;6246871;23;20016;-65
2022/01/11 13:39:02;;;;;;;17.75;2.83;;;13.00;99.90;;;;;;6247193;23;20012;-64
2022/01/11 13:41:36;;;;;;;6.65;3.10;;;12.90;99.90;;;;;;6247392;23;20012;-64
2022/01/11 13:44:07;;;;;;;13.80;2.88;;;12.80;99.90;;;;;;6247207;23;20014;-64
2022/01/11 13:46:50;;;;;;;12.70;3.83;;;12.80;99.90;;;;;;6194944;23;20075;-64
2022/01/11 13:49:22;;;;;;;11.23;3.17;;;12.70;99.90;;;;;;6220418;23;20004;-64
2022/01/11 13:51:59;;;;;;;13.25;2.45;;;12.70;99.90;;;;;;6247068;23;20044;-64
2022/01/11 13:54:34;;;;;;;6.22;3.10;;;12.70;99.90;;;;;;6220130;23;20380;-64
2022/01/11 13:57:18;;;;;;;11.02;2.80;;;12.70;99.90;;;;;;6246669;22;20448;-65
2022/01/11 13:59:56;;;;;;;10.93;3.35;;;12.60;99.90;;;;;;6247014;23;20046;-64
2022/01/11 14:02:32;;;;;;;9.90;3.10;;;12.70;99.90;;;;;;6247118;23;20421;-64
2022/01/11 14:05:05;;;;;;;8.95;2.08;;;12.70;99.90;;;;;;6247357;23;20016;-64
2022/01/11 14:07:34;;;;;;;9.73;2.63;;;12.70;99.90;;;;;;6246762;23;20015;-64
2022/01/11 14:10:14;;;;;;;9.85;2.50;;;12.80;99.90;;;;;;6246862;23;20019;-64
2022/01/11 14:12:45;;;;;;;5.80;2.28;;;12.80;99.90;;;;;;6220131;23;20015;-64
2022/01/11 14:15:14;;;;;;;8.80;2.78;;;12.90;99.90;;;;;;6247044;23;20014;-64
2022/01/11 14:17:41;;;;;;;8.57;1.92;;;12.90;99.90;;;;;;6246694;23;20058;-64
2022/01/11 14:20:13;;;;;;;9.93;2.40;;;13.00;99.90;;;;;;6246848;23;20050;-64
2022/01/11 14:22:52;;;;;;;6.30;2.72;;;13.00;99.90;;;;;;6246691;23;20004;-64
2022/01/11 14:25:50;;;;;;;9.85;2.15;;;13.10;99.90;;;;;;6219880;23;20034;-63
2022/01/11 14:28:33;;;;;;;6.82;2.65;;;13.00;99.90;;;;;;6241624;23;20069;-64
2022/01/11 14:31:20;;;;;;;8.68;2.10;;;12.90;99.90;;;;;;6219900;23;20004;-64
2022/01/11 14:33:46;;;;;;;4.80;2.03;;;12.90;99.90;;;;;;6247057;23;20095;-64
2022/01/11 14:36:22;;;;;;;3.33;2.17;;;12.80;99.90;;;;;;6246474;23;20073;-64
2022/01/11 14:38:52;;;;;;;7.90;1.88;;;12.80;99.90;;;;;;6246604;23;20004;-64
2022/01/11 14:41:40;;;;;;;7.50;2.17;;;12.80;99.90;;;;;;6246866;23;20007;-64
2022/01/11 14:44:16;;;;;;;7.32;2.55;;;12.70;99.90;;;;;;6246685;23;20008;-64
2022/01/11 14:47:04;;;;;;;6.63;2.20;;;12.70;99.90;;;;;;6246624;23;20000;-64
2022/01/11 14:49:35;;;;;;;7.65;2.92;;;12.60;99.90;;;;;;6246515;23;20325;-64
2022/01/11 14:52:09;;;;;;;3.40;1.85;;;12.60;99.90;;;;;;6246532;23;20080;-64
2022/01/11 14:54:39;;;;;;;6.57;2.20;;;12.50;99.90;;;;;;6246639;23;20059;-64
2022/01/11 14:57:09;;;;;;;11.05;3.75;;;12.50;99.90;;;;;;6246112;23;20012;-67
2022/01/11 14:59:37;;;;;;;6.70;2.63;;;12.50;99.90;;;;;;6246554;23;20004;-62
2022/01/11 15:02:11;;;;;;;10.00;2.20;;;12.50;99.90;;;;;;6246559;23;20000;-64
2022/01/11 15:04:42;;;;;;;8.97;2.80;;;12.50;99.90;;;;;;6246614;23;20003;-64
2022/01/11 15:07:13;;;;;;;4.22;2.17;;;12.40;99.90;;;;;;6246418;23;20012;-64
2022/01/11 15:09:44;;;;;;;4.93;2.42;;;12.40;99.90;;;;;;6246381;23;20167;-64
2022/01/11 15:12:21;;;;;;;4.70;2.30;;;12.30;99.90;;;;;;6246354;23;20008;-64
2022/01/11 15:14:54;;;;;;;4.47;2.55;;;12.30;99.90;;;;;;6246310;23;20477;-64
2022/01/11 15:17:22;;;;;;;6.38;2.17;;;12.30;99.90;;;;;;6246226;23;20020;-64
2022/01/11 15:19:49;;;;;;;8.00;2.47;;;12.20;99.90;;;;;;6246370;23;20022;-64
2022/01/11 15:22:16;;;;;;;3.78;1.48;;;12.20;99.90;;;;;;6246227;23;20008;-64
2022/01/11 15:24:45;;;;;;;6.90;2.75;;;12.30;99.90;;;;;;6245892;23;20429;-64
2022/01/11 15:27:11;;;;;;;13.48;2.40;;;12.20;99.90;;;;;;6220306;23;20004;-65
2022/01/11 15:29:38;;;;;;;7.95;2.67;;;12.10;99.90;;;;;;6246045;23;20008;-65
2022/01/11 15:32:05;;;;;;;5.35;2.10;;;12.10;99.90;;;;;;6246187;23;20322;-64
2022/01/11 15:34:33;;;;;;;3.83;2.22;;;12.10;99.90;;;;;;6245993;23;20074;-65
2022/01/11 15:37:01;;;;;;;3.45;1.80;;;12.10;99.90;;;;;;6245864;23;20023;-65
2022/01/11 15:39:31;;;;;;;12.05;2.92;;;12.00;99.90;;;;;;6246170;23;20053;-65
2022/01/11 15:42:00;;;;;;;4.47;2.50;;;12.00;99.90;;;;;;6245397;23;20004;-64
2022/01/11 15:44:30;;;;;;;6.10;2.17;;;11.90;99.90;;;;;;6245916;23;20322;-64
2022/01/11 15:47:01;;;;;;;8.52;2.80;;;11.90;99.90;;;;;;6219415;23;20079;-64
2022/01/11 15:49:27;;;;;;;7.32;2.53;;;11.90;99.90;;;;;;6246177;23;20008;-64
2022/01/11 15:51:54;;;;;;;3.55;2.10;;;11.90;99.90;;;;;;6246000;23;20387;-64
2022/01/11 15:54:21;;;;;;;4.43;2.17;;;11.90;99.90;;;;;;6245966;23;20046;-64
2022/01/11 15:56:50;;;;;;;6.95;2.78;;;11.80;99.90;;;;;;6245963;23;20046;-64
2022/01/11 15:59:17;;;;;;;11.52;3.67;;;11.80;99.90;;;;;;6245826;23;20016;-64
2022/01/11 16:01:45;;;;;;;4.60;2.60;;;11.70;99.90;;;;;;6219457;23;20012;-64
2022/01/11 16:04:17;;;;;;;6.88;2.28;;;11.70;99.90;;;;;;6246401;23;20410;-64
2022/01/11 16:06:44;;;;;;;9.52;3.38;;;11.70;99.90;;;;;;6245893;23;20008;-64
2022/01/11 16:09:11;;;;;;;15.48;4.43;;;11.80;99.90;;;;;;6246422;23;20035;-64
2022/01/11 16:11:41;;;;;;;9.93;4.03;;;11.70;99.90;;;;;;6219243;23;20012;-64
2022/01/11 16:14:07;;;;;;;5.45;3.63;;;11.70;99.90;;;;;;6219451;23;20418;-64
2022/01/11 16:16:34;;;;;;;8.95;2.88;;;11.60;99.90;;;;;;6245957;23;20012;-64
2022/01/11 16:19:04;;;;;;;13.57;3.65;;;11.60;99.90;;;;;;6219151;23;20004;-64
2022/01/11 16:21:31;;;;;;;14.63;3.25;;;11.60;99.90;;;;;;6246009;23;20361;-64
2022/01/11 16:23:57;;;;;;;11.27;4.10;;;11.60;99.90;;;;;;6246111;23;20003;-64
2022/01/11 16:26:24;;;;;;;24.60;3.97;;;11.50;99.90;;;;;;6245960;23;20012;-64
2022/01/11 16:28:57;;;;;;;13.02;3.70;;;11.50;99.90;;;;;;6245992;23;20004;-64
2022/01/11 16:31:24;;;;;;;9.07;3.45;;;11.40;99.90;;;;;;6245891;23;20008;-64
2022/01/11 16:33:51;;;;;;;14.43;3.88;;;11.40;99.90;;;;;;6245933;23;20426;-64
2022/01/11 16:36:18;;;;;;;17.92;3.03;;;11.40;99.90;;;;;;6245960;23;20091;-64
2022/01/11 16:38:47;;;;;;;11.60;4.18;;;11.30;99.90;;;;;;6246350;23;20001;-64
2022/01/11 16:43:47;;;;;;;7.35;3.47;;;11.30;99.90;;;;;;6220570;23;20038;-64
2022/01/11 16:46:14;;;;;;;12.88;3.13;;;11.30;99.90;;;;;;6247631;23;20012;-64
2022/01/11 16:48:41;;;;;;;6.95;3.03;;;11.20;99.90;;;;;;6247614;23;20008;-64
2022/01/11 16:51:09;;;;;;;15.60;3.17;;;11.20;99.90;;;;;;6247843;23;20483;-64
2022/01/11 16:53:37;;;;;;;11.15;3.42;;;11.10;99.90;;;;;;6247655;23;20000;-64
2022/01/11 16:56:05;;;;;;;17.88;3.28;;;11.10;99.90;;;;;;6247518;23;20012;-64
2022/01/11 16:58:32;;;;;;;7.22;2.47;;;11.10;99.90;;;;;;6247593;23;20519;-63
2022/01/11 17:01:00;;;;;;;7.35;3.63;;;11.10;99.90;;;;;;6247565;23;20015;-64
2022/01/11 17:03:27;;;;;;;7.43;3.00;;;11.10;99.90;;;;;;6247443;23;20346;-64
2022/01/11 17:05:54;;;;;;;10.27;3.35;;;11.10;99.90;;;;;;6247559;23;20070;-64
2022/01/11 17:08:21;;;;;;;3.72;2.22;;;11.10;99.90;;;;;;6221221;23;20377;-72
